Heat Index SAI AWOS Graphical Display Untitled Document
Sidney Municipal Airport , NY ( N23 )
230
12:32
18/10/20
07
N/A
200V270
29.68
N/A
1027
50(F), 10(C)
44(F), 7(C)
47 F
82%
BKN031 BKN044 OVC065
10
N/A
N/A
N/A
12:32 zulu Wind 230 at 07 Knots, Altimeter 29.68
METAR KN23 201232Z AUTO 23007KT 200V270 10SM BKN031 BKN042 OVC065 10/07 A2968 A02
METAR:
FAA Disclaimer--Advisory Use ONLY, not for flight info-- 6/29/2009: Sidney Airport, operations 607-561-2346, Pilots with cellphones (smartphones) can now view awos at http://www.saiawos3.com/N23
INFO:
Wind Direction:
Wind Speed:
Wind Gust:
Wind Variable:
Altimeter:
Dens Alt:
Elev:
Temp:
Dwpt:
Wind Chill
Rel Humidity:
Ceiling:
Visibility:
Prsnt Wea:
PCPN:
Remarks:
How to read the WebPage